Nashville, Georgia
Current Conditions -  °F | °C
As of 6:58 PM on Monday 20 Oct 2014 (Local Time) from KVAD Reporting Station
Few Clouds Few Clouds  
Wind Chill: 77°   Ceiling: Unl
Heat Index: 79°   Visibility: 10mi
Dew Point: 60°   Wind: 2mph
Humidity: 55%   Direction: 250°WSW
Pressure: 29.97"   Gusts: NA
Location:  31.21°N, 83.25°W
Report Text: KVAD 202258Z AUTO 25002KT 10SM FEW230 25/15 A2997 RMK AO2 SLP150 T02500153 $
Loading
Personal Weather Stations






























Interactive Weather Map
Tropical Storm Tracking
New forecast layout! Learn more

10-Day Weather Forecast

Advertisements
Track Severe Weather on mobile